METAR Data
IDs: Format: Raw Decoded Include TAF

Data at: 0306 UTC 05 Jun 2020

KMBY 050255Z AUTO 14004KT 10SM CLR 23/18 A2982 RMK AO2 P0001
KMBY 050235Z AUTO 14004KT 10SM CLR 23/18 A2981 RMK AO2 P0001
KMBY 050215Z AUTO 14003KT 10SM CLR 24/18 A2981 RMK AO2
KMBY 050155Z AUTO 15003KT 10SM CLR 24/18 A2982 RMK AO2 P0002
KMBY 050135Z AUTO 15004KT 10SM CLR 25/18 A2982 RMK AO2 P0001
KMBY 050115Z AUTO 15004KT 10SM CLR 26/18 A2982 RMK AO2 P0001
KMBY 050055Z AUTO 16005KT 10SM CLR 26/17 A2982 RMK AO2 P0001
KMBY 050035Z AUTO 17005KT 10SM CLR 27/17 A2982 RMK AO2 P0001
KMBY 050015Z AUTO 18006KT 10SM CLR 27/17 A2981 RMK AO2
KMBY 042355Z AUTO 18007KT 10SM CLR 27/17 A2981 RMK AO2 P0001
KMBY 042335Z AUTO 16006KT 10SM CLR 27/17 A2981 RMK AO2 P0001
KMBY 042315Z AUTO 14007KT 10SM CLR 28/17 A2981 RMK AO2
KMBY 042255Z AUTO 18006KT 10SM CLR 28/18 A2981 RMK AO2 P0002
KMBY 042235Z AUTO 15008KT 10SM SCT035 28/18 A2980 RMK AO2 P0002
KMBY 042215Z AUTO 18005KT 10SM CLR 28/18 A2981 RMK AO2 P0001
KMBY 042155Z AUTO 16005KT 10SM CLR 28/18 A2981 RMK AO2 P0004
KMBY 042135Z AUTO 18006KT 10SM SCT036 28/18 A2982 RMK AO2 P0003
KMBY 042115Z AUTO 16006KT 10SM SCT036 28/18 A2982 RMK AO2 P0001
KMBY 042055Z AUTO 21003KT 10SM BKN033 BKN039 28/18 A2983 RMK AO2 P0005
KMBY 042035Z AUTO 18005KT 10SM SCT031 28/18 A2983 RMK AO2 P0003
KMBY 042015Z AUTO 20005KT 10SM SCT031 28/19 A2983 RMK AO2 P0001
KMBY 041955Z AUTO 20004KT 10SM SCT033 27/18 A2983 RMK AO2 P0008
KMBY 041935Z AUTO 25004KT 10SM CLR 27/17 A2984 RMK AO2 P0006
KMBY 041915Z AUTO 22003KT 10SM CLR 28/17 A2984 RMK AO2 P0003
KMBY 041855Z AUTO 20004KT 10SM CLR 27/18 A2985 RMK AO2 P0009
KMBY 041835Z AUTO 24005KT 10SM CLR 27/17 A2984 RMK AO2 P0005
KMBY 041815Z AUTO 24003KT 10SM CLR 27/17 A2985 RMK AO2 P0001
KMBY 041755Z AUTO 28004KT 10SM CLR 26/17 A2985 RMK AO2 P0004
KMBY 041735Z AUTO 25003KT 10SM CLR 26/17 A2985 RMK AO2 P0003
KMBY 041715Z AUTO 20004KT 10SM CLR 26/17 A2985 RMK AO2 P0001
KMBY 041655Z AUTO 00000KT 10SM CLR 26/17 A2985 RMK AO2 P0001
KMBY 041635Z AUTO 00000KT 10SM CLR 24/16 A2985 RMK AO2 P0001
KMBY 041615Z AUTO 00000KT 10SM CLR 24/17 A2985 RMK AO2
KMBY 041555Z AUTO 13003KT 10SM CLR 23/17 A2984 RMK AO2 P0001
KMBY 041535Z AUTO 11007KT 10SM CLR 23/17 A2984 RMK AO2
KMBY 041515Z AUTO 10007KT 10SM CLR 22/17 A2985 RMK AO2
KMBY 041455Z AUTO 02008KT 10SM CLR 21/17 A2984 RMK AO2 P0001
KMBY 041435Z AUTO 05006KT 7SM CLR 21/17 A2983 RMK AO2 P0001
KMBY 041415Z AUTO 03008KT 10SM CLR 20/16 A2983 RMK AO2 P0001
KMBY 041355Z AUTO 04004KT 10SM CLR 21/16 A2983 RMK AO2 P0001
KMBY 041335Z AUTO 35005KT 10SM CLR 20/16 A2982 RMK AO2 P0001
KMBY 041315Z AUTO 33005KT 10SM CLR 19/16 A2980 RMK AO2
KMBY 041255Z AUTO 24005KT 10SM CLR 19/16 A2979 RMK AO2 P0001
KMBY 041235Z AUTO 24007KT 10SM SCT120 19/16 A2979 RMK AO2 P0001 LTG DSNT S
KMBY 041215Z AUTO 21012KT 10SM SCT030 SCT041 BKN055 18/16 A2977 RMK AO2
KMBY 041155Z AUTO 20016G22KT 10SM SCT042 OVC050 18/16 A2978 RMK AO2 P0001
KMBY 041135Z AUTO 23016G23KT 10SM SCT043 BKN048 OVC110 19/16 A2983 RMK AO2 P0001 LTG DSNT SE
KMBY 041115Z AUTO 22018G23KT 10SM SCT045 SCT050 OVC110 18/16 A2982 RMK AO2 P0001
KMBY 041055Z AUTO 21016KT 10SM SCT047 BKN050 OVC110 18/16 A2980 RMK AO2
KMBY 041035Z AUTO 21014KT 10SM BKN050 BKN070 OVC110 18/16 A2982 RMK AO2
KMBY 041015Z AUTO 21014G22KT 10SM SCT041 BKN055 OVC120 18/16 A2982 RMK AO2
KMBY 040955Z AUTO 23013G19KT 10SM SCT014 SCT046 OVC120 19/16 A2985 RMK AO2 LTG DSNT SW
KMBY 040935Z AUTO 23022G27KT 10SM SCT014 SCT060 BKN090 19/16 A2985 RMK AO2 LTG DSNT SW
KMBY 040915Z AUTO 27016KT 10SM VCTS SCT017 SCT022 BKN110 20/16 A2986 RMK AO2 LTG DSNT SW
KMBY 040855Z AUTO 22015G26KT 182V242 10SM VCTS BKN120 20/15 A2975 RMK AO2 LTG DSNT SW AND W
KMBY 040835Z AUTO 18015G28KT 10SM BKN120 20/15 A2975 RMK AO2 LTG DSNT SW AND W
KMBY 040815Z AUTO 18014G19KT 10SM BKN120 20/15 A2978 RMK AO2 LTG DSNT SW THRU NW
KMBY 040755Z AUTO 19017G22KT 10SM VCTS BKN120 20/15 A2977 RMK AO2 P0001 LTG DSNT S THRU NW
KMBY 040735Z AUTO 21010KT 10SM VCTS SCT120 20/16 A2982 RMK AO2 LTG DSNT SW AND W
KMBY 040715Z AUTO 22007KT 10SM BKN120 19/16 A2981 RMK AO2 LTG DSNT SW THRU NW
KMBY 040655Z AUTO 19005KT 10SM TS BKN120 20/16 A2984 RMK AO2 P0002 LTG DSNT SE THRU NW
KMBY 040635Z AUTO 22006KT 10SM VCTS SCT060 SCT070 BKN110 20/17 A2982 RMK AO2 P0001 LTG DSNT SE THRU NW
KMBY 040615Z AUTO 25007KT 10SM SCT040 BKN060 OVC120 20/17 A2981 RMK AO2 P0001 LTG DSNT ALQDS
KMBY 040555Z AUTO 20013G17KT 10SM VCTS SCT016 SCT032 BKN050 19/17 A2982 RMK AO2 P0001 LTG DSNT ALQDS
KMBY 040535Z AUTO 20017KT 7SM TS SCT017 BKN030 OVC046 19/17 A2986 RMK AO2 P0001 LTG DSNT ALQDS
KMBY 040515Z AUTO 17017KT 7SM TS SCT015 BKN025 OVC035 19/17 A2989 RMK AO2 LTG DSNT ALQDS
KMBY 040455Z AUTO 15013G25KT 4SM VCTS SCT007 BKN022 OVC030 19/17 A2988 RMK AO2 P0001 LTG DSNT ALQDS
KMBY 040435Z AUTO 10016G21KT 3SM TS SCT007 BKN014 OVC028 19/17 A2991 RMK AO2 LTG DSNT ALQDS
KMBY 040415Z AUTO 15014KT 7SM TS SCT005 BKN014 OVC028 20/17 A2985 RMK AO2 LTG DSNT ALQDS
KMBY 040355Z AUTO 12009KT 4SM TS SCT014 SCT021 OVC048 20/18 A2983 RMK AO2 P0002 LTG DSNT ALQDS
KMBY 040335Z AUTO 11018KT 10SM TS BKN048 BKN050 BKN070 21/18 A2979 RMK AO2 P0001 LTG DSNT ALQDS
KMBY 040315Z AUTO 12017G31KT 4SM TS SCT008 SCT020 SCT033 20/18 A2978 RMK AO2 P0001 LTG DSNT ALQDS
KMBY 040255Z AUTO 10026G43KT 3SM TS SCT009 BKN024 OVC043 20/17 A2984 RMK AO2 P0001 LTG DSNT ALQDS
KMBY 040235Z AUTO 10006G09KT 7SM TS SCT032 OVC042 25/20 A2977 RMK AO2 P0001 LTG DSNT ALQDS
KMBY 040215Z AUTO 34007KT 10SM TS SCT009 BKN046 OVC095 27/21 A2974 RMK AO2 P0001 LTG DSNT ALQDS
KMBY 040155Z AUTO 10006KT 5SM TS SCT009 SCT025 BKN048 27/21 A2973 RMK AO2 LTG DSNT ALQDS
KMBY 040135Z AUTO 19006KT 10SM TS SCT050 SCT085 SCT110 29/21 A2975 RMK AO2 LTG DSNT NE THRU S
KMBY 040115Z AUTO 20006KT 10SM VCTS SCT050 SCT060 SCT085 30/21 A2975 RMK AO2 LTG DSNT NE THRU SE
KMBY 040055Z AUTO 19006KT 10SM SCT050 SCT065 30/21 A2976 RMK AO2 LTG DSNT NE THRU SE
KMBY 040035Z AUTO 21006KT 10SM VCTS SCT050 30/21 A2976 RMK AO2 LTG DSNT NE THRU SE
KMBY 040015Z AUTO 21006KT 10SM VCTS CLR 31/21 A2977 RMK AO2 LTG DSNT NE AND E
KMBY 032355Z AUTO 21007KT 10SM TS CLR 31/21 A2977 RMK AO2 LTG DSNT NE THRU SE
KMBY 032335Z AUTO 23011G15KT 10SM VCTS SCT060 SCT080 31/20 A2977 RMK AO2 LTG DSNT NE THRU SE
KMBY 032315Z AUTO 22010KT 10SM TS SCT060 SCT070 SCT080 31/21 A2977 RMK AO2 LTG DSNT E
KMBY 032255Z AUTO 21009KT 10SM SCT070 32/20 A2978 RMK AO2 LTG DSNT E
KMBY 032235Z AUTO 21008KT 10SM CLR 32/20 A2980 RMK AO2 LTG DSNT E
KMBY 032215Z AUTO 21008KT 10SM CLR 33/20 A2979 RMK AO2 LTG DSNT E
KMBY 032155Z AUTO 23007KT 10SM CLR 31/20 A2980 RMK AO2 LTG DSNT E AND W
KMBY 032135Z AUTO 24008KT 10SM CLR 32/20 A2980 RMK AO2 LTG DSNT E
KMBY 032115Z AUTO 21010KT 10SM CLR 33/20 A2979 RMK AO2 LTG DSNT E
KMBY 032055Z AUTO 23007KT 10SM CLR 32/20 A2981 RMK AO2 LTG DSNT E
KMBY 032035Z AUTO 22010G16KT 10SM SCT039 33/19 A2982 RMK AO2 LTG DSNT E
KMBY 032015Z AUTO 22008KT 10SM SCT039 SCT047 33/20 A2983 RMK AO2 LTG DSNT E
KMBY 031955Z AUTO 22009KT 10SM SCT039 SCT047 33/20 A2984 RMK AO2 LTG DSNT E
KMBY 031935Z AUTO 22007KT 10SM BKN037 32/20 A2985 RMK AO2 LTG DSNT E
KMBY 031915Z AUTO 23007KT 10SM SCT037 32/20 A2985 RMK AO2
KMBY 031855Z AUTO 21009KT 10SM SCT037 32/20 A2986 RMK AO2
KMBY 031835Z AUTO 20006KT 10SM SCT037 32/19 A2987 RMK AO2 LTG DSNT NE
KMBY 031815Z AUTO 24007KT 10SM CLR 32/20 A2987 RMK AO2
KMBY 031755Z AUTO 20007G14KT 10SM CLR 32/20 A2988 RMK AO2
KMBY 031735Z AUTO 20009G14KT 10SM CLR 31/20 A2988 RMK AO2
KMBY 031715Z AUTO 20008KT 10SM CLR 31/20 A2988 RMK AO2
KMBY 031655Z AUTO 21012KT 10SM CLR 30/20 A2988 RMK AO2
KMBY 031635Z AUTO 22011KT 10SM CLR 30/20 A2989 RMK AO2
KMBY 031615Z AUTO 24009KT 10SM CLR 29/20 A2990 RMK AO2
KMBY 031555Z AUTO 24012KT 10SM CLR 28/19 A2990 RMK AO2
KMBY 031535Z AUTO 24010G16KT 10SM CLR 28/19 A2990 RMK AO2
KMBY 031515Z AUTO 23010G17KT 10SM CLR 28/20 A2990 RMK AO2